createdAt,value
2018-09-09T00:00:59.174Z,1014.37
2018-09-09T00:01:58.593Z,1014.40
2018-09-09T00:02:58.606Z,1014.35
2018-09-09T00:03:58.587Z,1014.33
2018-09-09T00:04:58.598Z,1014.34
2018-09-09T00:05:58.612Z,1014.33
2018-09-09T00:06:58.608Z,1014.34
2018-09-09T00:07:58.632Z,1014.30
2018-09-09T00:08:58.619Z,1014.32
2018-09-09T00:09:58.594Z,1014.33
2018-09-09T00:10:58.606Z,1014.35
2018-09-09T00:11:58.615Z,1014.37
2018-09-09T00:12:58.611Z,1014.42
2018-09-09T00:13:58.621Z,1014.45
2018-09-09T00:14:58.616Z,1014.42
2018-09-09T00:15:59.182Z,1014.46
2018-09-09T00:16:58.633Z,1014.48
2018-09-09T00:17:58.624Z,1014.48
2018-09-09T00:18:58.620Z,1014.45
2018-09-09T00:19:58.675Z,1014.46
2018-09-09T00:20:58.649Z,1014.41
2018-09-09T00:21:58.657Z,1014.40
2018-09-09T00:22:58.639Z,1014.39
2018-09-09T00:23:58.671Z,1014.40
2018-09-09T00:24:58.653Z,1014.43
2018-09-09T00:25:58.651Z,1014.40
2018-09-09T00:26:58.660Z,1014.36
2018-09-09T00:27:58.644Z,1014.38
2018-09-09T00:28:59.189Z,1014.39
2018-09-09T00:29:58.671Z,1014.38
2018-09-09T00:30:58.661Z,1014.40
2018-09-09T00:31:58.651Z,1014.41
2018-09-09T00:32:58.672Z,1014.39
2018-09-09T00:33:58.686Z,1014.42
2018-09-09T00:34:58.668Z,1014.37
2018-09-09T00:35:58.666Z,1014.35
2018-09-09T00:36:58.706Z,1014.41
2018-09-09T00:37:58.670Z,1014.40
2018-09-09T00:38:58.709Z,1014.40
2018-09-09T00:39:58.695Z,1014.38
2018-09-09T00:40:58.705Z,1014.34
2018-09-09T00:41:59.689Z,1014.34
2018-09-09T00:42:58.666Z,1014.39
2018-09-09T00:43:58.753Z,1014.38
2018-09-09T00:44:58.741Z,1014.36
2018-09-09T00:45:58.733Z,1014.41
2018-09-09T00:46:58.691Z,1014.39
2018-09-09T00:47:58.695Z,1014.44
2018-09-09T00:48:58.753Z,1014.39
2018-09-09T00:49:58.692Z,1014.39
2018-09-09T00:50:58.785Z,1014.36
2018-09-09T00:51:58.721Z,1014.36
2018-09-09T00:52:58.746Z,1014.37
2018-09-09T00:53:58.701Z,1014.36
2018-09-09T00:54:58.806Z,1014.36
2018-09-09T00:55:58.741Z,1014.35
2018-09-09T00:56:58.737Z,1014.38
2018-09-09T00:57:58.776Z,1014.35
2018-09-09T00:58:58.733Z,1014.39
2018-09-09T00:59:58.735Z,1014.45
2018-09-09T01:00:58.734Z,1014.41
2018-09-09T01:01:58.762Z,1014.43
2018-09-09T01:02:58.721Z,1014.41
2018-09-09T01:03:58.751Z,1014.36
2018-09-09T01:04:58.751Z,1014.35
2018-09-09T01:05:58.890Z,1014.35
2018-09-09T01:06:58.719Z,1014.38
2018-09-09T01:07:58.756Z,1014.42
2018-09-09T01:08:58.759Z,1014.38
2018-09-09T01:09:58.718Z,1014.38
2018-09-09T01:10:58.733Z,1014.39
2018-09-09T01:11:58.735Z,1014.35
2018-09-09T01:12:58.838Z,1014.34
2018-09-09T01:13:58.742Z,1014.36
2018-09-09T01:14:58.792Z,1014.41
2018-09-09T01:15:58.754Z,1014.39
2018-09-09T01:16:58.762Z,1014.36
2018-09-09T01:17:58.749Z,1014.33
2018-09-09T01:18:58.766Z,1014.29
2018-09-09T01:19:58.779Z,1014.31
2018-09-09T01:20:58.833Z,1014.33
2018-09-09T01:21:58.805Z,1014.33
2018-09-09T01:22:58.840Z,1014.34
2018-09-09T01:23:58.798Z,1014.35
2018-09-09T01:24:58.770Z,1014.32
2018-09-09T01:25:58.777Z,1014.34
2018-09-09T01:26:58.786Z,1014.36
2018-09-09T01:27:58.787Z,1014.33
2018-09-09T01:28:58.773Z,1014.30
2018-09-09T01:29:58.810Z,1014.31
2018-09-09T01:30:58.806Z,1014.32
2018-09-09T01:31:58.836Z,1014.30
2018-09-09T01:32:58.808Z,1014.38
2018-09-09T01:33:58.830Z,1014.28
2018-09-09T01:34:58.852Z,1014.30
2018-09-09T01:35:58.791Z,1014.28
2018-09-09T01:36:58.794Z,1014.22
2018-09-09T01:37:58.813Z,1014.25
2018-09-09T01:38:58.801Z,1014.26
2018-09-09T01:39:58.799Z,1014.21
2018-09-09T01:40:58.821Z,1014.22
2018-09-09T01:41:58.798Z,1014.27
2018-09-09T01:42:58.813Z,1014.25
2018-09-09T01:43:58.810Z,1014.29
2018-09-09T01:44:58.820Z,1014.28
2018-09-09T01:45:58.814Z,1014.30
2018-09-09T01:46:58.839Z,1014.31
2018-09-09T01:47:58.850Z,1014.31
2018-09-09T01:48:58.908Z,1014.28
2018-09-09T01:49:58.846Z,1014.31
2018-09-09T01:50:58.842Z,1014.31
2018-09-09T01:51:58.868Z,1014.34
2018-09-09T01:52:58.828Z,1014.38
2018-09-09T01:53:58.828Z,1014.33
2018-09-09T01:54:59.711Z,1014.34
2018-09-09T01:55:58.866Z,1014.32
2018-09-09T01:56:58.859Z,1014.31
2018-09-09T01:57:58.863Z,1014.29
2018-09-09T01:58:58.856Z,1014.31
2018-09-09T01:59:58.851Z,1014.29
2018-09-09T02:00:58.888Z,1014.25
2018-09-09T02:01:58.846Z,1014.28
2018-09-09T02:02:58.865Z,1014.27
2018-09-09T02:03:58.847Z,1014.30
2018-09-09T02:04:58.902Z,1014.28
2018-09-09T02:05:58.856Z,1014.26
2018-09-09T02:06:58.861Z,1014.25
2018-09-09T02:07:58.865Z,1014.29
2018-09-09T02:08:58.880Z,1014.27
2018-09-09T02:09:58.911Z,1014.30
2018-09-09T02:10:58.885Z,1014.33
2018-09-09T02:11:58.855Z,1014.32
2018-09-09T02:12:58.887Z,1014.36
2018-09-09T02:13:58.874Z,1014.38
2018-09-09T02:14:58.913Z,1014.39
2018-09-09T02:15:58.873Z,1014.38
2018-09-09T02:16:58.911Z,1014.37
2018-09-09T02:17:58.897Z,1014.37
2018-09-09T02:18:58.894Z,1014.34
2018-09-09T02:19:58.913Z,1014.31
2018-09-09T02:20:58.907Z,1014.28
2018-09-09T02:21:58.922Z,1014.28
2018-09-09T02:22:58.886Z,1014.25
2018-09-09T02:23:58.910Z,1014.26
2018-09-09T02:24:58.897Z,1014.26
2018-09-09T02:25:58.970Z,1014.29
2018-09-09T02:26:58.901Z,1014.28
2018-09-09T02:27:58.924Z,1014.29
2018-09-09T02:28:58.927Z,1014.30
2018-09-09T02:29:59.001Z,1014.32
2018-09-09T02:30:58.914Z,1014.32
2018-09-09T02:31:58.909Z,1014.33
2018-09-09T02:32:58.911Z,1014.34
2018-09-09T02:33:58.909Z,1014.36
2018-09-09T02:34:58.921Z,1014.32
2018-09-09T02:35:58.916Z,1014.31
2018-09-09T02:36:58.927Z,1014.36
2018-09-09T02:37:58.928Z,1014.32
2018-09-09T02:38:58.924Z,1014.38
2018-09-09T02:39:58.929Z,1014.38
2018-09-09T02:40:58.969Z,1014.34
2018-09-09T02:41:58.984Z,1014.38
2018-09-09T02:42:58.971Z,1014.34
2018-09-09T02:43:58.976Z,1014.35
2018-09-09T02:44:58.958Z,1014.33
2018-09-09T02:45:58.944Z,1014.37
2018-09-09T02:46:58.949Z,1014.40
2018-09-09T02:47:58.999Z,1014.35
2018-09-09T02:48:58.967Z,1014.35
2018-09-09T02:49:58.942Z,1014.36
2018-09-09T02:50:58.956Z,1014.36
2018-09-09T02:51:58.963Z,1014.32
2018-09-09T02:52:58.959Z,1014.31
2018-09-09T02:53:58.973Z,1014.29
2018-09-09T02:55:01.821Z,1014.31
2018-09-09T02:55:58.968Z,1014.32
2018-09-09T02:56:58.970Z,1014.32
2018-09-09T02:57:58.979Z,1014.30
2018-09-09T02:58:58.983Z,1014.28
2018-09-09T02:59:59.020Z,1014.30
2018-09-09T03:00:58.996Z,1014.31
2018-09-09T03:01:58.992Z,1014.33
2018-09-09T03:02:59.016Z,1014.34
2018-09-09T03:03:59.023Z,1014.37
2018-09-09T03:04:59.000Z,1014.38
2018-09-09T03:05:58.980Z,1014.37
2018-09-09T03:06:59.017Z,1014.38
2018-09-09T03:07:59.012Z,1014.39
2018-09-09T03:08:58.980Z,1014.38
2018-09-09T03:09:59.030Z,1014.37
2018-09-09T03:10:59.737Z,1014.40
2018-09-09T03:11:58.991Z,1014.41
2018-09-09T03:12:58.994Z,1014.40
2018-09-09T03:13:59.012Z,1014.39
2018-09-09T03:14:58.999Z,1014.36
2018-09-09T03:15:59.003Z,1014.37
2018-09-09T03:16:59.035Z,1014.39
2018-09-09T03:17:59.004Z,1014.42
2018-09-09T03:18:59.032Z,1014.45
2018-09-09T03:19:59.094Z,1014.46
2018-09-09T03:20:59.036Z,1014.45
2018-09-09T03:21:59.155Z,1014.43
2018-09-09T03:22:59.040Z,1014.41
2018-09-09T03:23:59.046Z,1014.45
2018-09-09T03:24:59.034Z,1014.42
2018-09-09T03:25:59.033Z,1014.41
2018-09-09T03:26:59.040Z,1014.44
2018-09-09T03:27:59.039Z,1014.46
2018-09-09T03:28:59.076Z,1014.47
2018-09-09T03:29:59.017Z,1014.46
2018-09-09T03:30:59.131Z,1014.41
2018-09-09T03:31:59.045Z,1014.33
2018-09-09T03:32:59.070Z,1014.28
2018-09-09T03:33:59.084Z,1014.16
2018-09-09T03:34:59.060Z,1014.17
2018-09-09T03:35:59.051Z,1014.12
2018-09-09T03:36:59.065Z,1014.11
2018-09-09T03:37:59.058Z,1014.11
2018-09-09T03:38:59.058Z,1014.12
2018-09-09T03:39:59.063Z,1014.10
2018-09-09T03:40:59.101Z,1014.12
2018-09-09T03:41:59.160Z,1014.11
2018-09-09T03:42:59.079Z,1014.11
2018-09-09T03:43:59.104Z,1014.12
2018-09-09T03:44:59.113Z,1014.11
2018-09-09T03:45:59.075Z,1014.16
2018-09-09T03:46:59.104Z,1014.21
2018-09-09T03:47:59.116Z,1014.21
2018-09-09T03:48:59.122Z,1014.12
2018-09-09T03:49:59.065Z,1014.15
2018-09-09T03:50:59.083Z,1014.19
2018-09-09T03:51:59.106Z,1014.15
2018-09-09T03:52:59.137Z,1014.21
2018-09-09T03:53:59.080Z,1014.23
2018-09-09T03:54:59.101Z,1014.22
2018-09-09T03:55:59.115Z,1014.21
2018-09-09T03:56:59.089Z,1014.22
2018-09-09T03:57:59.134Z,1014.25
2018-09-09T03:58:59.190Z,1014.24
2018-09-09T03:59:59.108Z,1014.27
2018-09-09T04:00:59.190Z,1014.29
2018-09-09T04:01:59.137Z,1014.26
2018-09-09T04:02:59.118Z,1014.29
2018-09-09T04:03:59.132Z,1014.33
2018-09-09T04:04:59.117Z,1014.30
2018-09-09T04:05:59.143Z,1014.32
2018-09-09T04:06:59.162Z,1014.33
2018-09-09T04:07:59.189Z,1014.34
2018-09-09T04:08:59.170Z,1014.35
2018-09-09T04:09:59.197Z,1014.32
2018-09-09T04:10:59.162Z,1014.35
2018-09-09T04:11:59.118Z,1014.35
2018-09-09T04:12:59.117Z,1014.40
2018-09-09T04:13:59.116Z,1014.37
2018-09-09T04:14:59.124Z,1014.38
2018-09-09T04:15:59.204Z,1014.37
2018-09-09T04:16:59.128Z,1014.33
2018-09-09T04:17:59.766Z,1014.36
2018-09-09T04:18:59.140Z,1014.38
2018-09-09T04:19:59.145Z,1014.36
2018-09-09T04:20:59.160Z,1014.39
2018-09-09T04:21:59.162Z,1014.38
2018-09-09T04:22:59.167Z,1014.41
2018-09-09T04:23:59.157Z,1014.39
2018-09-09T04:24:59.158Z,1014.36
2018-09-09T04:25:59.148Z,1014.41
2018-09-09T04:26:59.210Z,1014.39
2018-09-09T04:27:59.163Z,1014.40
2018-09-09T04:28:59.174Z,1014.41
2018-09-09T04:29:59.184Z,1014.41
2018-09-09T04:30:59.276Z,1014.37
2018-09-09T04:31:59.206Z,1014.32
2018-09-09T04:32:59.162Z,1014.34
2018-09-09T04:33:59.170Z,1014.33
2018-09-09T04:34:59.177Z,1014.35
2018-09-09T04:35:59.157Z,1014.34
2018-09-09T04:36:59.172Z,1014.35
2018-09-09T04:37:59.174Z,1014.38
2018-09-09T04:38:59.168Z,1014.37
2018-09-09T04:39:59.190Z,1014.34
2018-09-09T04:40:59.173Z,1014.32
2018-09-09T04:41:59.250Z,1014.32
2018-09-09T04:42:59.217Z,1014.29
2018-09-09T04:43:59.215Z,1014.34
2018-09-09T04:44:59.218Z,1014.36
2018-09-09T04:45:59.203Z,1014.36
2018-09-09T04:46:59.207Z,1014.35
2018-09-09T04:47:59.215Z,1014.37
2018-09-09T04:48:59.247Z,1014.40
2018-09-09T04:49:59.226Z,1014.44
2018-09-09T04:50:59.215Z,1014.42
2018-09-09T04:51:59.254Z,1014.39
2018-09-09T04:52:59.202Z,1014.37
2018-09-09T04:53:59.241Z,1014.35
2018-09-09T04:54:59.214Z,1014.44
2018-09-09T04:55:59.208Z,1014.43
2018-09-09T04:56:59.217Z,1014.44
2018-09-09T04:57:59.213Z,1014.44
2018-09-09T04:58:59.222Z,1014.40
2018-09-09T04:59:59.238Z,1014.39
2018-09-09T05:00:59.222Z,1014.40
2018-09-09T05:01:59.217Z,1014.41
2018-09-09T05:02:59.229Z,1014.40
2018-09-09T05:03:59.226Z,1014.40
2018-09-09T05:04:59.243Z,1014.51
2018-09-09T05:05:59.239Z,1014.52
2018-09-09T05:06:59.220Z,1014.51
2018-09-09T05:07:59.250Z,1014.53
2018-09-09T05:08:59.229Z,1014.56
2018-09-09T05:09:59.239Z,1014.58
2018-09-09T05:10:59.249Z,1014.55
2018-09-09T05:11:59.331Z,1014.59
2018-09-09T05:12:59.234Z,1014.56
2018-09-09T05:13:59.234Z,1014.57
2018-09-09T05:14:59.269Z,1014.53
2018-09-09T05:15:59.246Z,1014.52
2018-09-09T05:16:59.245Z,1014.59
2018-09-09T05:17:59.251Z,1014.58
2018-09-09T05:18:59.267Z,1014.60
2018-09-09T05:19:59.259Z,1014.69
2018-09-09T05:20:59.269Z,1014.69
2018-09-09T05:21:59.263Z,1014.71
2018-09-09T05:22:59.280Z,1014.72
2018-09-09T05:23:59.280Z,1014.66
2018-09-09T05:24:59.276Z,1014.67
2018-09-09T05:25:59.278Z,1014.70
2018-09-09T05:26:59.295Z,1014.74
2018-09-09T05:27:59.298Z,1014.77
2018-09-09T05:28:59.285Z,1014.77
2018-09-09T05:29:59.787Z,1014.80
2018-09-09T05:30:59.333Z,1014.81
2018-09-09T05:31:59.472Z,1014.80
2018-09-09T05:32:59.329Z,1014.81
2018-09-09T05:33:59.294Z,1014.83
2018-09-09T05:34:59.306Z,1014.83
2018-09-09T05:35:59.342Z,1014.82
2018-09-09T05:36:59.296Z,1014.79
2018-09-09T05:37:59.302Z,1014.78
2018-09-09T05:38:59.318Z,1014.81
2018-09-09T05:39:59.305Z,1014.83
2018-09-09T05:40:59.337Z,1014.80
2018-09-09T05:41:59.355Z,1014.75
2018-09-09T05:42:59.314Z,1014.79
2018-09-09T05:43:59.329Z,1014.83
2018-09-09T05:44:59.344Z,1014.82
2018-09-09T05:45:59.323Z,1014.81
2018-09-09T05:46:59.354Z,1014.80
2018-09-09T05:47:59.336Z,1014.77
2018-09-09T05:48:59.352Z,1014.83
2018-09-09T05:49:59.378Z,1014.89
2018-09-09T05:50:59.340Z,1014.89
2018-09-09T05:51:59.328Z,1014.88
2018-09-09T05:52:59.321Z,1014.87
2018-09-09T05:53:59.377Z,1014.90
2018-09-09T05:54:59.334Z,1014.90
2018-09-09T05:55:59.326Z,1014.88
2018-09-09T05:56:59.347Z,1014.92
2018-09-09T05:57:59.338Z,1014.94
2018-09-09T05:58:59.331Z,1014.94
2018-09-09T05:59:59.344Z,1014.97
2018-09-09T06:00:59.338Z,1014.93
2018-09-09T06:01:59.346Z,1014.95
2018-09-09T06:02:59.339Z,1014.93
2018-09-09T06:03:59.349Z,1014.92
2018-09-09T06:04:59.349Z,1014.90
2018-09-09T06:05:59.342Z,1014.92
2018-09-09T06:06:59.419Z,1014.92
2018-09-09T06:07:59.352Z,1014.90
2018-09-09T06:08:59.401Z,1014.94
2018-09-09T06:09:59.356Z,1014.98
2018-09-09T06:10:59.388Z,1014.94
2018-09-09T06:11:59.363Z,1014.97
2018-09-09T06:12:59.394Z,1014.98
2018-09-09T06:13:59.388Z,1014.98
2018-09-09T06:14:59.363Z,1014.99
2018-09-09T06:15:59.388Z,1014.96
2018-09-09T06:16:59.393Z,1014.97
2018-09-09T06:17:59.410Z,1014.98
2018-09-09T06:18:59.386Z,1014.94
2018-09-09T06:19:59.424Z,1014.98
2018-09-09T06:20:59.433Z,1014.96
2018-09-09T06:21:59.414Z,1015.01
2018-09-09T06:22:59.412Z,1015.05
2018-09-09T06:24:00.313Z,1015.05
2018-09-09T06:24:59.396Z,1015.09
2018-09-09T06:25:59.428Z,1015.07
2018-09-09T06:26:59.409Z,1015.06
2018-09-09T06:27:59.402Z,1015.10
2018-09-09T06:28:59.422Z,1015.09
2018-09-09T06:29:59.431Z,1015.10
2018-09-09T06:30:59.414Z,1015.14
2018-09-09T06:31:59.405Z,1015.17
2018-09-09T06:32:59.430Z,1015.19
2018-09-09T06:33:59.470Z,1015.22
2018-09-09T06:34:59.420Z,1015.22
2018-09-09T06:35:59.428Z,1015.22
2018-09-09T06:36:59.709Z,1015.23
2018-09-09T06:37:59.440Z,1015.23
2018-09-09T06:38:59.448Z,1015.22
2018-09-09T06:39:59.464Z,1015.23
2018-09-09T06:41:00.323Z,1015.30
2018-09-09T06:41:59.459Z,1015.35
2018-09-09T06:42:59.460Z,1015.31
2018-09-09T06:43:59.474Z,1015.34
2018-09-09T06:44:59.454Z,1015.35
2018-09-09T06:45:59.448Z,1015.37
2018-09-09T06:46:59.448Z,1015.39
2018-09-09T06:47:59.501Z,1015.39
2018-09-09T06:48:59.463Z,1015.42
2018-09-09T06:49:59.581Z,1015.47
2018-09-09T06:50:59.465Z,1015.53
2018-09-09T06:51:59.476Z,1015.49
2018-09-09T06:52:59.472Z,1015.49
2018-09-09T06:53:59.458Z,1015.55
2018-09-09T06:54:59.497Z,1015.58
2018-09-09T06:55:59.491Z,1015.59
2018-09-09T06:56:59.501Z,1015.52
2018-09-09T06:57:59.486Z,1015.51
2018-09-09T06:58:59.475Z,1015.62
2018-09-09T06:59:59.466Z,1015.64
2018-09-09T07:00:59.486Z,1015.68
2018-09-09T07:01:59.484Z,1015.58
2018-09-09T07:02:59.488Z,1015.54
2018-09-09T07:03:59.494Z,1015.57
2018-09-09T07:04:59.544Z,1015.60
2018-09-09T07:05:59.495Z,1015.69
2018-09-09T07:06:59.498Z,1015.82
2018-09-09T07:07:59.508Z,1015.75
2018-09-09T07:08:59.528Z,1015.70
2018-09-09T07:09:59.536Z,1015.93
2018-09-09T07:10:59.640Z,1015.87
2018-09-09T07:11:59.593Z,1015.85
2018-09-09T07:12:59.534Z,1015.81
2018-09-09T07:13:59.499Z,1015.83
2018-09-09T07:14:59.521Z,1015.77
2018-09-09T07:15:59.511Z,1015.84
2018-09-09T07:16:59.623Z,1015.81
2018-09-09T07:17:59.511Z,1015.83
2018-09-09T07:18:59.545Z,1015.86
2018-09-09T07:19:59.549Z,1015.90
2018-09-09T07:20:59.626Z,1015.91
2018-09-09T07:21:59.556Z,1016.13
2018-09-09T07:22:59.540Z,1016.01
2018-09-09T07:23:59.548Z,1015.94
2018-09-09T07:24:59.571Z,1016.04
2018-09-09T07:25:59.569Z,1016.06
2018-09-09T07:26:59.572Z,1016.00
2018-09-09T07:27:59.562Z,1015.94
2018-09-09T07:28:59.590Z,1015.85
2018-09-09T07:29:59.584Z,1015.86
2018-09-09T07:30:59.648Z,1015.84
2018-09-09T07:31:59.616Z,1015.86
2018-09-09T07:32:59.624Z,1015.87
2018-09-09T07:33:59.604Z,1015.82
2018-09-09T07:34:59.607Z,1015.90
2018-09-09T07:35:59.602Z,1015.90
2018-09-09T07:36:59.632Z,1015.89
2018-09-09T07:37:59.597Z,1015.85
2018-09-09T07:38:59.629Z,1015.81
2018-09-09T07:39:59.647Z,1015.81
2018-09-09T07:40:59.613Z,1015.81
2018-09-09T07:41:59.618Z,1015.79
2018-09-09T07:42:59.640Z,1015.78
2018-09-09T07:43:59.665Z,1015.69
2018-09-09T07:44:59.668Z,1015.63
2018-09-09T07:45:59.638Z,1015.62
2018-09-09T07:46:59.643Z,1015.62
2018-09-09T07:47:59.698Z,1015.60
2018-09-09T07:48:59.646Z,1015.70
2018-09-09T07:49:59.674Z,1015.68
2018-09-09T07:50:59.657Z,1015.65
2018-09-09T07:51:59.657Z,1015.70
2018-09-09T07:52:59.756Z,1015.70
2018-09-09T07:53:59.704Z,1015.70
2018-09-09T07:54:59.771Z,1015.68
2018-09-09T07:55:59.675Z,1015.66
2018-09-09T07:56:59.690Z,1015.71
2018-09-09T07:57:59.695Z,1015.72
2018-09-09T07:58:59.720Z,1015.72
2018-09-09T07:59:59.702Z,1015.71
2018-09-09T08:00:59.685Z,1015.70
2018-09-09T08:01:59.708Z,1015.67
2018-09-09T08:02:59.704Z,1015.67
2018-09-09T08:03:59.709Z,1015.69
2018-09-09T08:04:59.722Z,1015.70
2018-09-09T08:05:59.723Z,1015.72
2018-09-09T08:06:59.736Z,1015.73
2018-09-09T08:07:59.770Z,1015.72
2018-09-09T08:08:59.741Z,1015.70
2018-09-09T08:09:59.717Z,1015.72
2018-09-09T08:10:59.766Z,1015.74
2018-09-09T08:11:59.908Z,1015.79
2018-09-09T08:12:59.784Z,1015.85
2018-09-09T08:13:59.778Z,1015.91
2018-09-09T08:14:59.791Z,1015.95
2018-09-09T08:15:59.738Z,1015.94
2018-09-09T08:16:59.730Z,1015.94
2018-09-09T08:17:59.743Z,1015.84
2018-09-09T08:18:59.767Z,1015.79
2018-09-09T08:19:59.754Z,1015.67
2018-09-09T08:20:59.751Z,1015.63
2018-09-09T08:21:59.777Z,1015.59
2018-09-09T08:22:59.760Z,1015.55
2018-09-09T08:23:59.775Z,1015.49
2018-09-09T08:24:59.773Z,1015.53
2018-09-09T08:25:59.808Z,1015.48
2018-09-09T08:26:59.801Z,1015.45
2018-09-09T08:27:59.796Z,1015.45
2018-09-09T08:28:59.800Z,1015.51
2018-09-09T08:29:59.865Z,1015.55
2018-09-09T08:30:59.826Z,1015.65
2018-09-09T08:31:59.817Z,1015.78
2018-09-09T08:32:59.803Z,1015.74
2018-09-09T08:33:59.869Z,1015.69
2018-09-09T08:34:59.806Z,1015.70
2018-09-09T08:35:59.797Z,1015.68
2018-09-09T08:36:59.790Z,1015.80
2018-09-09T08:37:59.890Z,1015.83
2018-09-09T08:38:59.822Z,1015.97
2018-09-09T08:39:59.831Z,1016.04
2018-09-09T08:40:59.814Z,1016.05
2018-09-09T08:41:59.858Z,1015.98
2018-09-09T08:42:59.876Z,1016.07
2018-09-09T08:43:59.821Z,1016.33
2018-09-09T08:44:59.829Z,1016.25
2018-09-09T08:45:59.871Z,1016.26
2018-09-09T08:46:59.865Z,1016.39
2018-09-09T08:47:59.877Z,1016.19
2018-09-09T08:48:59.855Z,1016.27
2018-09-09T08:49:59.839Z,1016.58
2018-09-09T08:50:59.859Z,1016.53
2018-09-09T08:51:59.921Z,1016.54
2018-09-09T08:52:59.873Z,1016.53
2018-09-09T08:53:59.896Z,1016.68
2018-09-09T08:54:59.876Z,1016.69
2018-09-09T08:55:59.910Z,1016.55
2018-09-09T08:56:59.887Z,1016.41
2018-09-09T08:57:59.933Z,1016.70
2018-09-09T08:58:59.912Z,1016.80
2018-09-09T08:59:59.929Z,1016.69
2018-09-09T09:00:59.935Z,1016.52
2018-09-09T09:01:59.934Z,1016.62
2018-09-09T09:02:59.925Z,1016.54
2018-09-09T09:03:59.939Z,1016.97
2018-09-09T09:04:59.979Z,1016.47
2018-09-09T09:05:59.956Z,1016.97
2018-09-09T09:07:00.012Z,1016.71
2018-09-09T09:08:00.493Z,1016.76
2018-09-09T09:08:59.929Z,1016.38
2018-09-09T09:10:00.888Z,1016.47
2018-09-09T09:10:59.952Z,1016.39
2018-09-09T09:11:59.961Z,1016.50
2018-09-09T09:12:59.952Z,1016.45
2018-09-09T09:13:59.966Z,1016.53
2018-09-09T09:14:59.978Z,1016.44
2018-09-09T09:15:59.986Z,1016.32
2018-09-09T09:17:00.071Z,1016.27
2018-09-09T09:18:00.021Z,1016.31
2018-09-09T09:19:00.009Z,1016.32
2018-09-09T09:20:00.046Z,1016.26
2018-09-09T09:21:00.008Z,1016.30
2018-09-09T09:22:00.057Z,1016.38
2018-09-09T09:23:00.026Z,1016.70
2018-09-09T09:24:00.045Z,1016.35
2018-09-09T09:25:00.047Z,1016.47
2018-09-09T09:26:00.065Z,1016.77
2018-09-09T09:27:00.054Z,1016.51
2018-09-09T09:28:00.095Z,1016.60
2018-09-09T09:29:00.160Z,1016.64
2018-09-09T09:30:00.078Z,1016.65
2018-09-09T09:31:00.102Z,1016.45
2018-09-09T09:32:00.065Z,1016.84
2018-09-09T09:33:00.131Z,1016.50
2018-09-09T09:34:00.096Z,1016.51
2018-09-09T09:35:00.190Z,1016.52
2018-09-09T09:36:00.270Z,1016.55
2018-09-09T09:37:00.117Z,1016.51
2018-09-09T09:38:00.136Z,1016.79
2018-09-09T09:39:00.148Z,1016.47
2018-09-09T09:40:00.168Z,1016.67
2018-09-09T09:41:00.149Z,1016.50
2018-09-09T09:42:00.198Z,1016.53
2018-09-09T09:43:00.168Z,1016.40
2018-09-09T09:44:00.204Z,1016.55
2018-09-09T09:45:00.274Z,1016.71
2018-09-09T09:46:00.223Z,1016.61
2018-09-09T09:47:00.266Z,1016.67
2018-09-09T09:48:00.214Z,1016.68
2018-09-09T09:49:00.230Z,1016.83
2018-09-09T09:50:00.235Z,1016.71
2018-09-09T09:51:00.918Z,1016.68
2018-09-09T09:52:00.263Z,1016.53
2018-09-09T09:53:00.246Z,1016.47
2018-09-09T09:54:00.317Z,1016.59
2018-09-09T09:55:00.378Z,1016.43
2018-09-09T09:56:00.316Z,1016.37
2018-09-09T09:57:00.278Z,1016.26
2018-09-09T09:58:00.283Z,1016.28
2018-09-09T09:59:00.288Z,1016.49
2018-09-09T10:00:00.327Z,1016.62
2018-09-09T10:01:00.314Z,1016.94
2018-09-09T10:02:00.302Z,1016.35
2018-09-09T10:03:00.342Z,1016.24
2018-09-09T10:04:00.439Z,1016.28
2018-09-09T10:05:00.345Z,1016.13
2018-09-09T10:06:00.359Z,1016.31
2018-09-09T10:07:00.376Z,1016.44
2018-09-09T10:08:00.395Z,1016.17
2018-09-09T10:09:00.400Z,1016.24
2018-09-09T10:10:00.382Z,1016.34
2018-09-09T10:11:00.431Z,1016.39
2018-09-09T10:12:00.394Z,1016.27
2018-09-09T10:13:00.435Z,1016.20
2018-09-09T10:14:00.533Z,1016.25
2018-09-09T10:15:00.483Z,1016.22
2018-09-09T10:16:00.927Z,1016.25
2018-09-09T10:17:00.432Z,1016.25
2018-09-09T10:18:00.419Z,1016.14
2018-09-09T10:19:00.464Z,1016.13
2018-09-09T10:20:00.452Z,1016.21
2018-09-09T10:21:00.462Z,1016.27
2018-09-09T10:22:00.465Z,1016.29
2018-09-09T10:23:00.462Z,1016.38
2018-09-09T10:24:00.481Z,1016.37
2018-09-09T10:25:00.484Z,1016.37
2018-09-09T10:26:00.514Z,1016.21
2018-09-09T10:27:00.487Z,1016.16
2018-09-09T10:28:00.486Z,1016.09
2018-09-09T10:29:02.006Z,1016.05
2018-09-09T10:30:00.588Z,1016.12
2018-09-09T10:31:00.508Z,1016.13
2018-09-09T10:32:00.534Z,1016.20
2018-09-09T10:33:00.558Z,1016.28
2018-09-09T10:34:00.562Z,1016.41
2018-09-09T10:35:00.556Z,1016.39
2018-09-09T10:36:00.551Z,1016.48
2018-09-09T10:37:00.556Z,1016.20
2018-09-09T10:38:00.585Z,1016.23
2018-09-09T10:39:00.608Z,1016.39
2018-09-09T10:40:00.598Z,1016.45
2018-09-09T10:41:00.640Z,1016.43
2018-09-09T10:42:00.652Z,1016.33
2018-09-09T10:43:00.615Z,1016.26
2018-09-09T10:44:00.623Z,1016.17
2018-09-09T10:45:00.666Z,1016.16
2018-09-09T10:46:00.697Z,1016.18
2018-09-09T10:47:00.700Z,1016.20
2018-09-09T10:48:00.702Z,1016.25
2018-09-09T10:49:00.672Z,1016.15
2018-09-09T10:50:00.703Z,1016.31
2018-09-09T10:51:00.697Z,1016.28
2018-09-09T10:52:01.453Z,1016.37
2018-09-09T10:53:00.776Z,1016.37
2018-09-09T10:54:00.741Z,1016.38
2018-09-09T10:55:00.818Z,1016.34
2018-09-09T10:56:00.821Z,1016.35
2018-09-09T10:57:00.776Z,1016.44
2018-09-09T10:58:00.799Z,1016.46
2018-09-09T10:59:00.850Z,1016.41
2018-09-09T11:00:00.815Z,1016.42
2018-09-09T11:01:00.792Z,1016.43
2018-09-09T11:02:00.795Z,1016.37
2018-09-09T11:03:00.849Z,1016.36
2018-09-09T11:04:00.827Z,1016.29
2018-09-09T11:05:00.882Z,1016.27
2018-09-09T11:06:00.886Z,1016.32
2018-09-09T11:07:00.900Z,1016.30
2018-09-09T11:08:00.874Z,1016.35
2018-09-09T11:09:00.866Z,1016.31
2018-09-09T11:10:00.943Z,1016.37
2018-09-09T11:11:00.902Z,1016.37
2018-09-09T11:12:00.952Z,1016.30
2018-09-09T11:13:01.052Z,1016.27
2018-09-09T11:14:00.941Z,1016.29
2018-09-09T11:15:01.008Z,1016.31
2018-09-09T11:16:00.996Z,1016.31
2018-09-09T11:17:01.064Z,1016.34
2018-09-09T11:18:01.020Z,1016.29
2018-09-09T11:19:00.990Z,1016.25
2018-09-09T11:20:01.013Z,1016.16
2018-09-09T11:21:01.036Z,1016.16
2018-09-09T11:22:01.056Z,1016.16
2018-09-09T11:23:01.041Z,1016.09
2018-09-09T11:24:01.044Z,1016.01
2018-09-09T11:25:01.106Z,1016.12
2018-09-09T11:26:01.044Z,1016.08
2018-09-09T11:27:01.085Z,1016.13
2018-09-09T11:28:01.079Z,1016.10
2018-09-09T11:29:01.098Z,1016.06
2018-09-09T11:30:01.197Z,1016.13
2018-09-09T11:31:01.118Z,1016.11
2018-09-09T11:32:01.144Z,1016.14
2018-09-09T11:33:01.120Z,1016.11
2018-09-09T11:34:01.104Z,1016.10
2018-09-09T11:35:01.141Z,1016.11
2018-09-09T11:36:01.146Z,1016.07
2018-09-09T11:37:01.135Z,1016.12
2018-09-09T11:38:01.147Z,1016.05
2018-09-09T11:39:01.159Z,1015.99
2018-09-09T11:40:01.165Z,1015.92
2018-09-09T11:41:01.158Z,1015.89
2018-09-09T11:42:01.189Z,1015.89
2018-09-09T11:43:01.217Z,1015.88
2018-09-09T11:44:01.246Z,1015.90
2018-09-09T11:45:01.196Z,1015.88
2018-09-09T11:46:01.290Z,1015.91
2018-09-09T11:47:01.203Z,1015.95
2018-09-09T11:48:01.214Z,1015.92
2018-09-09T11:49:01.284Z,1015.92
2018-09-09T11:50:01.285Z,1015.91
2018-09-09T11:51:01.286Z,1015.87
2018-09-09T11:52:01.305Z,1015.84
2018-09-09T11:53:01.328Z,1015.85
2018-09-09T11:54:01.258Z,1015.81
2018-09-09T11:55:01.305Z,1015.85
2018-09-09T11:56:01.267Z,1015.85
2018-09-09T11:57:01.274Z,1015.86
2018-09-09T11:58:01.275Z,1015.77
2018-09-09T11:59:01.276Z,1015.72
2018-09-09T12:00:01.332Z,1015.62
2018-09-09T12:01:01.345Z,1015.65
2018-09-09T12:02:01.380Z,1015.61
2018-09-09T12:03:01.320Z,1015.50
2018-09-09T12:04:01.336Z,1015.47
2018-09-09T12:05:04.154Z,1015.40
2018-09-09T12:06:01.345Z,1015.38